sensor_id;sensor_type;location;lat;lon;timestamp;P1;durP1;ratioP1;P2;durP2;ratioP2
42296;SDS011;28985;47.456;19.016;2022-09-09T00:00:45;250.23;;;241.02;;
42296;SDS011;28985;47.456;19.016;2022-09-09T00:03:24;250.02;;;240.85;;
42296;SDS011;28985;47.456;19.016;2022-09-09T00:17:18;250.93;;;241.68;;
42296;SDS011;28985;47.456;19.016;2022-09-09T00:20:14;258.10;;;248.65;;
42296;SDS011;28985;47.456;19.016;2022-09-09T00:22:51;235.85;;;227.02;;
42296;SDS011;28985;47.456;19.016;2022-09-09T00:28:00;239.98;;;231.23;;
42296;SDS011;28985;47.456;19.016;2022-09-09T00:30:29;204.90;;;197.35;;
42296;SDS011;28985;47.456;19.016;2022-09-09T00:33:03;176.20;;;169.77;;
42296;SDS011;28985;47.456;19.016;2022-09-09T00:35:40;195.90;;;188.75;;
42296;SDS011;28985;47.456;19.016;2022-09-09T00:38:12;211.77;;;203.98;;
42296;SDS011;28985;47.456;19.016;2022-09-09T00:40:49;229.85;;;221.27;;
42296;SDS011;28985;47.456;19.016;2022-09-09T00:45:55;237.00;;;228.35;;
42296;SDS011;28985;47.456;19.016;2022-09-09T00:51:15;237.23;;;228.25;;
42296;SDS011;28985;47.456;19.016;2022-09-09T00:56:54;244.73;;;235.77;;
42296;SDS011;28985;47.456;19.016;2022-09-09T01:02:35;261.52;;;251.88;;
42296;SDS011;28985;47.456;19.016;2022-09-09T01:05:11;263.55;;;253.65;;
42296;SDS011;28985;47.456;19.016;2022-09-09T01:07:47;258.80;;;249.30;;
42296;SDS011;28985;47.456;19.016;2022-09-09T01:10:41;261.75;;;252.15;;
42296;SDS011;28985;47.456;19.016;2022-09-09T01:13:17;254.35;;;244.93;;
42296;SDS011;28985;47.456;19.016;2022-09-09T01:15:57;257.70;;;248.15;;
42296;SDS011;28985;47.456;19.016;2022-09-09T01:18:33;268.83;;;258.92;;
42296;SDS011;28985;47.456;19.016;2022-09-09T01:24:31;261.45;;;251.82;;
42296;SDS011;28985;47.456;19.016;2022-09-09T01:27:01;268.00;;;258.17;;
42296;SDS011;28985;47.456;19.016;2022-09-09T01:29:30;266.17;;;256.40;;
42296;SDS011;28985;47.456;19.016;2022-09-09T01:34:25;255.95;;;246.60;;
42296;SDS011;28985;47.456;19.016;2022-09-09T01:37:07;251.55;;;242.20;;
42296;SDS011;28985;47.456;19.016;2022-09-09T01:39:37;220.32;;;211.88;;
42296;SDS011;28985;47.456;19.016;2022-09-09T01:42:06;220.77;;;212.73;;
42296;SDS011;28985;47.456;19.016;2022-09-09T01:44:35;202.57;;;195.25;;
42296;SDS011;28985;47.456;19.016;2022-09-09T01:47:04;167.45;;;161.18;;
42296;SDS011;28985;47.456;19.016;2022-09-09T01:49:31;152.82;;;147.02;;
42296;SDS011;28985;47.456;19.016;2022-09-09T01:51:59;159.27;;;153.45;;
42296;SDS011;28985;47.456;19.016;2022-09-09T01:54:26;152.10;;;146.52;;
42296;SDS011;28985;47.456;19.016;2022-09-09T01:57:01;136.30;;;130.95;;
42296;SDS011;28985;47.456;19.016;2022-09-09T02:05:07;134.70;;;129.50;;
42296;SDS011;28985;47.456;19.016;2022-09-09T02:07:46;119.78;;;115.30;;
42296;SDS011;28985;47.456;19.016;2022-09-09T02:10:24;118.38;;;113.95;;
42296;SDS011;28985;47.456;19.016;2022-09-09T02:13:04;105.20;;;101.20;;
42296;SDS011;28985;47.456;19.016;2022-09-09T02:15:42;89.95;;;86.57;;
42296;SDS011;28985;47.456;19.016;2022-09-09T02:18:18;76.38;;;73.47;;
42296;SDS011;28985;47.456;19.016;2022-09-09T02:21:00;79.97;;;76.90;;
42296;SDS011;28985;47.456;19.016;2022-09-09T02:23:28;66.93;;;64.45;;
42296;SDS011;28985;47.456;19.016;2022-09-09T02:25:57;58.40;;;56.22;;
42296;SDS011;28985;47.456;19.016;2022-09-09T02:28:25;54.83;;;52.65;;
42296;SDS011;28985;47.456;19.016;2022-09-09T02:30:55;50.63;;;48.72;;
42296;SDS011;28985;47.456;19.016;2022-09-09T02:33:23;51.78;;;49.88;;
42296;SDS011;28985;47.456;19.016;2022-09-09T02:35:53;51.15;;;49.15;;
42296;SDS011;28985;47.456;19.016;2022-09-09T02:38:23;49.80;;;48.05;;
42296;SDS011;28985;47.456;19.016;2022-09-09T02:40:54;52.00;;;49.90;;
42296;SDS011;28985;47.456;19.016;2022-09-09T02:43:21;55.05;;;52.67;;
42296;SDS011;28985;47.456;19.016;2022-09-09T02:48:30;52.95;;;51.08;;
42296;SDS011;28985;47.456;19.016;2022-09-09T02:51:24;55.90;;;53.88;;
42296;SDS011;28985;47.456;19.016;2022-09-09T02:54:04;54.33;;;52.30;;
42296;SDS011;28985;47.456;19.016;2022-09-09T02:57:39;53.75;;;51.80;;
42296;SDS011;28985;47.456;19.016;2022-09-09T03:02:18;55.60;;;53.47;;
42296;SDS011;28985;47.456;19.016;2022-09-09T03:04:45;67.40;;;64.85;;
42296;SDS011;28985;47.456;19.016;2022-09-09T03:07:19;65.82;;;63.33;;
42296;SDS011;28985;47.456;19.016;2022-09-09T03:09:46;71.55;;;68.85;;
42296;SDS011;28985;47.456;19.016;2022-09-09T03:12:13;82.40;;;79.40;;
42296;SDS011;28985;47.456;19.016;2022-09-09T03:14:40;76.10;;;73.30;;
42296;SDS011;28985;47.456;19.016;2022-09-09T03:17:06;79.78;;;76.75;;
42296;SDS011;28985;47.456;19.016;2022-09-09T03:19:33;79.78;;;76.88;;
42296;SDS011;28985;47.456;19.016;2022-09-09T03:22:01;71.25;;;68.22;;
42296;SDS011;28985;47.456;19.016;2022-09-09T03:24:27;74.03;;;71.13;;
42296;SDS011;28985;47.456;19.016;2022-09-09T03:26:54;73.00;;;70.10;;
42296;SDS011;28985;47.456;19.016;2022-09-09T03:29:21;74.72;;;71.88;;
42296;SDS011;28985;47.456;19.016;2022-09-09T03:31:48;74.43;;;71.63;;
42296;SDS011;28985;47.456;19.016;2022-09-09T03:34:15;75.68;;;72.72;;
42296;SDS011;28985;47.456;19.016;2022-09-09T03:36:41;75.55;;;72.75;;
42296;SDS011;28985;47.456;19.016;2022-09-09T03:39:08;77.80;;;74.88;;
42296;SDS011;28985;47.456;19.016;2022-09-09T03:41:34;76.78;;;73.90;;
42296;SDS011;28985;47.456;19.016;2022-09-09T03:44:01;75.70;;;72.40;;
42296;SDS011;28985;47.456;19.016;2022-09-09T03:46:27;71.60;;;68.93;;
42296;SDS011;28985;47.456;19.016;2022-09-09T03:48:54;69.60;;;66.80;;
42296;SDS011;28985;47.456;19.016;2022-09-09T03:51:21;66.75;;;64.07;;
42296;SDS011;28985;47.456;19.016;2022-09-09T03:53:48;67.65;;;65.13;;
42296;SDS011;28985;47.456;19.016;2022-09-09T03:56:15;60.00;;;57.80;;
42296;SDS011;28985;47.456;19.016;2022-09-09T03:58:42;59.28;;;57.05;;
42296;SDS011;28985;47.456;19.016;2022-09-09T04:01:09;56.13;;;53.80;;
42296;SDS011;28985;47.456;19.016;2022-09-09T04:03:41;53.33;;;51.13;;
42296;SDS011;28985;47.456;19.016;2022-09-09T04:06:08;50.55;;;48.75;;
42296;SDS011;28985;47.456;19.016;2022-09-09T04:08:37;46.47;;;44.70;;
42296;SDS011;28985;47.456;19.016;2022-09-09T04:11:04;41.78;;;40.17;;
42296;SDS011;28985;47.456;19.016;2022-09-09T04:13:36;36.90;;;35.42;;
42296;SDS011;28985;47.456;19.016;2022-09-09T04:16:05;36.08;;;34.30;;
42296;SDS011;28985;47.456;19.016;2022-09-09T04:18:32;35.45;;;34.05;;
42296;SDS011;28985;47.456;19.016;2022-09-09T04:21:00;36.30;;;34.90;;
42296;SDS011;28985;47.456;19.016;2022-09-09T04:23:28;31.95;;;30.65;;
42296;SDS011;28985;47.456;19.016;2022-09-09T04:25:56;32.88;;;31.75;;
42296;SDS011;28985;47.456;19.016;2022-09-09T04:28:25;34.85;;;33.58;;
42296;SDS011;28985;47.456;19.016;2022-09-09T04:30:54;35.03;;;33.63;;
42296;SDS011;28985;47.456;19.016;2022-09-09T04:33:21;33.10;;;31.88;;
42296;SDS011;28985;47.456;19.016;2022-09-09T04:35:48;33.58;;;32.20;;
42296;SDS011;28985;47.456;19.016;2022-09-09T04:38:16;32.28;;;31.08;;
42296;SDS011;28985;47.456;19.016;2022-09-09T04:40:43;30.27;;;29.23;;
42296;SDS011;28985;47.456;19.016;2022-09-09T04:43:13;27.75;;;26.67;;
42296;SDS011;28985;47.456;19.016;2022-09-09T04:45:41;21.02;;;20.23;;
42296;SDS011;28985;47.456;19.016;2022-09-09T04:48:08;19.30;;;18.52;;
42296;SDS011;28985;47.456;19.016;2022-09-09T04:50:38;20.33;;;19.50;;
42296;SDS011;28985;47.456;19.016;2022-09-09T04:53:04;19.55;;;18.83;;
42296;SDS011;28985;47.456;19.016;2022-09-09T04:55:31;20.85;;;19.35;;
42296;SDS011;28985;47.456;19.016;2022-09-09T04:58:02;21.65;;;20.55;;
42296;SDS011;28985;47.456;19.016;2022-09-09T05:00:33;17.85;;;17.15;;
42296;SDS011;28985;47.456;19.016;2022-09-09T05:03:03;16.60;;;15.80;;
42296;SDS011;28985;47.456;19.016;2022-09-09T05:05:32;14.63;;;13.93;;
42296;SDS011;28985;47.456;19.016;2022-09-09T05:08:05;13.73;;;12.82;;
42296;SDS011;28985;47.456;19.016;2022-09-09T05:10:36;12.88;;;12.40;;
42296;SDS011;28985;47.456;19.016;2022-09-09T05:13:04;11.38;;;10.98;;
42296;SDS011;28985;47.456;19.016;2022-09-09T05:15:31;11.55;;;10.93;;
42296;SDS011;28985;47.456;19.016;2022-09-09T05:18:01;11.55;;;10.50;;
42296;SDS011;28985;47.456;19.016;2022-09-09T05:20:28;10.30;;;9.50;;
42296;SDS011;28985;47.456;19.016;2022-09-09T05:22:55;9.60;;;9.02;;
42296;SDS011;28985;47.456;19.016;2022-09-09T05:25:22;8.52;;;8.15;;
42296;SDS011;28985;47.456;19.016;2022-09-09T05:27:52;9.15;;;8.75;;
42296;SDS011;28985;47.456;19.016;2022-09-09T05:30:20;9.88;;;8.95;;
42296;SDS011;28985;47.456;19.016;2022-09-09T05:32:48;9.50;;;9.00;;
42296;SDS011;28985;47.456;19.016;2022-09-09T05:35:15;9.57;;;9.13;;
42296;SDS011;28985;47.456;19.016;2022-09-09T05:37:42;10.60;;;9.93;;
42296;SDS011;28985;47.456;19.016;2022-09-09T05:40:08;11.07;;;10.48;;
42296;SDS011;28985;47.456;19.016;2022-09-09T05:42:37;12.73;;;11.98;;
42296;SDS011;28985;47.456;19.016;2022-09-09T05:45:05;12.20;;;11.70;;
42296;SDS011;28985;47.456;19.016;2022-09-09T05:47:34;12.82;;;12.13;;
42296;SDS011;28985;47.456;19.016;2022-09-09T05:50:01;12.30;;;11.40;;
42296;SDS011;28985;47.456;19.016;2022-09-09T05:52:28;12.88;;;12.18;;
42296;SDS011;28985;47.456;19.016;2022-09-09T05:54:54;16.15;;;15.55;;
42296;SDS011;28985;47.456;19.016;2022-09-09T05:57:23;18.20;;;17.48;;
42296;SDS011;28985;47.456;19.016;2022-09-09T05:59:49;18.95;;;18.20;;
42296;SDS011;28985;47.456;19.016;2022-09-09T06:02:16;22.63;;;21.70;;
42296;SDS011;28985;47.456;19.016;2022-09-09T06:04:42;30.58;;;29.25;;
42296;SDS011;28985;47.456;19.016;2022-09-09T06:07:09;36.08;;;34.72;;
42296;SDS011;28985;47.456;19.016;2022-09-09T06:09:35;39.85;;;38.28;;
42296;SDS011;28985;47.456;19.016;2022-09-09T06:12:02;41.10;;;39.60;;
42296;SDS011;28985;47.456;19.016;2022-09-09T06:14:29;55.80;;;53.70;;
42296;SDS011;28985;47.456;19.016;2022-09-09T06:16:56;57.92;;;55.80;;
42296;SDS011;28985;47.456;19.016;2022-09-09T06:19:22;58.90;;;56.63;;
42296;SDS011;28985;47.456;19.016;2022-09-09T06:21:52;63.25;;;60.80;;
42296;SDS011;28985;47.456;19.016;2022-09-09T06:24:19;69.88;;;67.30;;
42296;SDS011;28985;47.456;19.016;2022-09-09T06:26:46;66.38;;;63.83;;
42296;SDS011;28985;47.456;19.016;2022-09-09T06:29:12;66.43;;;64.03;;
42296;SDS011;28985;47.456;19.016;2022-09-09T06:31:39;65.80;;;63.05;;
42296;SDS011;28985;47.456;19.016;2022-09-09T06:34:07;61.83;;;59.53;;
42296;SDS011;28985;47.456;19.016;2022-09-09T06:36:35;58.55;;;56.25;;
42296;SDS011;28985;47.456;19.016;2022-09-09T06:39:04;67.38;;;64.65;;
42296;SDS011;28985;47.456;19.016;2022-09-09T06:41:37;62.83;;;60.33;;
42296;SDS011;28985;47.456;19.016;2022-09-09T06:44:04;57.03;;;54.83;;
42296;SDS011;28985;47.456;19.016;2022-09-09T06:46:31;56.08;;;53.65;;
42296;SDS011;28985;47.456;19.016;2022-09-09T06:48:59;55.10;;;52.95;;
42296;SDS011;28985;47.456;19.016;2022-09-09T06:51:30;54.17;;;52.05;;
42296;SDS011;28985;47.456;19.016;2022-09-09T06:53:59;57.17;;;54.92;;
42296;SDS011;28985;47.456;19.016;2022-09-09T06:56:46;57.90;;;55.80;;
42296;SDS011;28985;47.456;19.016;2022-09-09T06:59:12;62.55;;;60.15;;
42296;SDS011;28985;47.456;19.016;2022-09-09T07:01:40;68.97;;;66.07;;
42296;SDS011;28985;47.456;19.016;2022-09-09T07:04:08;72.13;;;69.50;;
42296;SDS011;28985;47.456;19.016;2022-09-09T07:06:36;66.10;;;63.60;;
42296;SDS011;28985;47.456;19.016;2022-09-09T07:09:05;82.05;;;78.93;;
42296;SDS011;28985;47.456;19.016;2022-09-09T07:11:41;75.72;;;72.85;;
42296;SDS011;28985;47.456;19.016;2022-09-09T07:14:09;75.70;;;72.95;;
42296;SDS011;28985;47.456;19.016;2022-09-09T07:16:40;87.28;;;83.97;;
42296;SDS011;28985;47.456;19.016;2022-09-09T07:19:08;82.15;;;78.93;;
42296;SDS011;28985;47.456;19.016;2022-09-09T07:21:35;90.32;;;86.85;;
42296;SDS011;28985;47.456;19.016;2022-09-09T07:24:02;82.78;;;79.80;;
42296;SDS011;28985;47.456;19.016;2022-09-09T07:26:29;89.38;;;85.78;;
42296;SDS011;28985;47.456;19.016;2022-09-09T07:28:57;108.90;;;104.60;;
42296;SDS011;28985;47.456;19.016;2022-09-09T07:36:27;95.65;;;91.93;;
42296;SDS011;28985;47.456;19.016;2022-09-09T07:39:17;84.78;;;81.63;;
42296;SDS011;28985;47.456;19.016;2022-09-09T07:41:45;86.88;;;83.72;;
42296;SDS011;28985;47.456;19.016;2022-09-09T07:44:14;120.97;;;116.25;;
42296;SDS011;28985;47.456;19.016;2022-09-09T07:46:43;152.82;;;147.10;;
42296;SDS011;28985;47.456;19.016;2022-09-09T07:49:11;157.18;;;151.32;;
42296;SDS011;28985;47.456;19.016;2022-09-09T07:51:39;188.50;;;181.45;;
42296;SDS011;28985;47.456;19.016;2022-09-09T07:54:09;208.52;;;200.75;;
42296;SDS011;28985;47.456;19.016;2022-09-09T07:56:38;199.13;;;191.85;;
42296;SDS011;28985;47.456;19.016;2022-09-09T07:59:05;229.20;;;220.65;;
42296;SDS011;28985;47.456;19.016;2022-09-09T08:01:34;228.32;;;219.85;;
42296;SDS011;28985;47.456;19.016;2022-09-09T08:04:06;236.43;;;227.75;;
42296;SDS011;28985;47.456;19.016;2022-09-09T08:06:39;237.30;;;228.50;;
42296;SDS011;28985;47.456;19.016;2022-09-09T08:09:07;243.27;;;234.32;;
42296;SDS011;28985;47.456;19.016;2022-09-09T08:11:35;243.25;;;234.35;;
42296;SDS011;28985;47.456;19.016;2022-09-09T08:14:04;248.48;;;239.38;;
42296;SDS011;28985;47.456;19.016;2022-09-09T08:16:34;256.33;;;246.80;;
42296;SDS011;28985;47.456;19.016;2022-09-09T08:19:03;269.80;;;259.60;;
42296;SDS011;28985;47.456;19.016;2022-09-09T08:21:30;285.25;;;274.70;;
42296;SDS011;28985;47.456;19.016;2022-09-09T08:23:59;316.95;;;304.95;;
42296;SDS011;28985;47.456;19.016;2022-09-09T08:26:28;307.17;;;295.63;;
42296;SDS011;28985;47.456;19.016;2022-09-09T08:28:57;320.42;;;308.23;;
42296;SDS011;28985;47.456;19.016;2022-09-09T08:31:33;330.80;;;318.15;;
42296;SDS011;28985;47.456;19.016;2022-09-09T08:34:01;357.58;;;343.83;;
42296;SDS011;28985;47.456;19.016;2022-09-09T08:36:32;388.45;;;373.23;;
42296;SDS011;28985;47.456;19.016;2022-09-09T08:39:05;395.02;;;379.33;;
42296;SDS011;28985;47.456;19.016;2022-09-09T08:47:29;378.77;;;364.02;;
42296;SDS011;28985;47.456;19.016;2022-09-09T08:52:57;397.75;;;382.00;;
42296;SDS011;28985;47.456;19.016;2022-09-09T08:58:28;404.70;;;388.45;;
42296;SDS011;28985;47.456;19.016;2022-09-09T09:12:15;427.00;;;409.70;;
42296;SDS011;28985;47.456;19.016;2022-09-09T09:14:53;469.95;;;450.52;;
42296;SDS011;28985;47.456;19.016;2022-09-09T09:17:22;449.25;;;430.83;;
42296;SDS011;28985;47.456;19.016;2022-09-09T09:19:51;381.20;;;366.02;;
42296;SDS011;28985;47.456;19.016;2022-09-09T09:27:47;411.13;;;394.58;;
42296;SDS011;28985;47.456;19.016;2022-09-09T09:30:22;391.27;;;375.83;;
42296;SDS011;28985;47.456;19.016;2022-09-09T09:32:58;396.60;;;380.77;;
42296;SDS011;28985;47.456;19.016;2022-09-09T09:35:32;418.02;;;401.08;;
42296;SDS011;28985;47.456;19.016;2022-09-09T09:38:24;386.42;;;371.08;;
42296;SDS011;28985;47.456;19.016;2022-09-09T09:41:14;380.38;;;365.48;;
42296;SDS011;28985;47.456;19.016;2022-09-09T09:43:40;430.58;;;412.95;;
42296;SDS011;28985;47.456;19.016;2022-09-09T09:46:21;390.73;;;375.10;;
42296;SDS011;28985;47.456;19.016;2022-09-09T09:49:03;447.92;;;429.40;;
42296;SDS011;28985;47.456;19.016;2022-09-09T09:51:34;283.50;;;272.77;;
42296;SDS011;28985;47.456;19.016;2022-09-09T09:56:56;208.80;;;201.05;;
42296;SDS011;28985;47.456;19.016;2022-09-09T10:02:06;202.95;;;195.27;;
42296;SDS011;28985;47.456;19.016;2022-09-09T10:04:44;321.50;;;309.20;;
42296;SDS011;28985;47.456;19.016;2022-09-09T10:07:13;207.38;;;199.50;;
42296;SDS011;28985;47.456;19.016;2022-09-09T10:09:53;220.18;;;211.75;;
42296;SDS011;28985;47.456;19.016;2022-09-09T10:21:00;62.75;;;60.50;;
42296;SDS011;28985;47.456;19.016;2022-09-09T10:26:35;57.63;;;55.42;;
42296;SDS011;28985;47.456;19.016;2022-09-09T10:37:02;36.53;;;35.05;;
42296;SDS011;28985;47.456;19.016;2022-09-09T10:39:37;48.20;;;46.50;;
42296;SDS011;28985;47.456;19.016;2022-09-09T10:42:09;36.30;;;35.00;;
42296;SDS011;28985;47.456;19.016;2022-09-09T10:52:41;21.40;;;20.50;;
42296;SDS011;28985;47.456;19.016;2022-09-09T10:55:43;20.48;;;19.77;;
42296;SDS011;28985;47.456;19.016;2022-09-09T10:58:20;21.90;;;21.20;;
42296;SDS011;28985;47.456;19.016;2022-09-09T11:00:57;21.25;;;20.55;;
42296;SDS011;28985;47.456;19.016;2022-09-09T11:03:29;21.08;;;20.38;;
42296;SDS011;28985;47.456;19.016;2022-09-09T11:06:06;21.83;;;21.13;;
42296;SDS011;28985;47.456;19.016;2022-09-09T11:08:40;20.43;;;19.77;;
42296;SDS011;28985;47.456;19.016;2022-09-09T11:11:21;21.88;;;21.17;;
42296;SDS011;28985;47.456;19.016;2022-09-09T11:13:57;21.98;;;21.17;;
42296;SDS011;28985;47.456;19.016;2022-09-09T11:16:30;20.95;;;20.25;;
42296;SDS011;28985;47.456;19.016;2022-09-09T11:19:45;20.50;;;19.90;;
42296;SDS011;28985;47.456;19.016;2022-09-09T11:22:04;21.65;;;20.75;;
42296;SDS011;28985;47.456;19.016;2022-09-09T11:24:38;22.70;;;22.00;;
42296;SDS011;28985;47.456;19.016;2022-09-09T11:27:08;22.60;;;21.90;;
42296;SDS011;28985;47.456;19.016;2022-09-09T11:40:28;19.70;;;19.00;;
42296;SDS011;28985;47.456;19.016;2022-09-09T11:43:39;18.45;;;17.77;;
42296;SDS011;28985;47.456;19.016;2022-09-09T11:46:07;18.42;;;17.83;;
42296;SDS011;28985;47.456;19.016;2022-09-09T11:48:36;18.25;;;17.65;;
42296;SDS011;28985;47.456;19.016;2022-09-09T11:51:08;19.38;;;18.67;;
42296;SDS011;28985;47.456;19.016;2022-09-09T12:01:41;17.88;;;17.27;;
42296;SDS011;28985;47.456;19.016;2022-09-09T12:04:14;18.25;;;17.38;;
42296;SDS011;28985;47.456;19.016;2022-09-09T12:09:27;17.90;;;17.30;;
42296;SDS011;28985;47.456;19.016;2022-09-09T12:12:07;18.02;;;17.42;;
42296;SDS011;28985;47.456;19.016;2022-09-09T12:14:39;17.75;;;16.95;;
42296;SDS011;28985;47.456;19.016;2022-09-09T12:17:21;18.50;;;17.67;;
42296;SDS011;28985;47.456;19.016;2022-09-09T12:22:40;18.42;;;17.73;;
42296;SDS011;28985;47.456;19.016;2022-09-09T12:30:56;19.30;;;18.67;;
42296;SDS011;28985;47.456;19.016;2022-09-09T12:33:35;20.40;;;19.70;;
42296;SDS011;28985;47.456;19.016;2022-09-09T12:36:03;19.83;;;19.13;;
42296;SDS011;28985;47.456;19.016;2022-09-09T12:38:36;21.35;;;20.65;;
42296;SDS011;28985;47.456;19.016;2022-09-09T12:41:06;25.27;;;24.20;;
42296;SDS011;28985;47.456;19.016;2022-09-09T12:43:46;27.48;;;26.58;;
42296;SDS011;28985;47.456;19.016;2022-09-09T12:46:33;29.75;;;28.70;;
42296;SDS011;28985;47.456;19.016;2022-09-09T12:49:03;34.38;;;33.17;;
42296;SDS011;28985;47.456;19.016;2022-09-09T12:51:31;34.33;;;33.05;;
42296;SDS011;28985;47.456;19.016;2022-09-09T12:53:59;30.33;;;29.23;;
42296;SDS011;28985;47.456;19.016;2022-09-09T12:56:27;21.63;;;20.83;;
42296;SDS011;28985;47.456;19.016;2022-09-09T12:58:58;20.00;;;19.30;;
42296;SDS011;28985;47.456;19.016;2022-09-09T13:01:32;20.40;;;19.52;;
42296;SDS011;28985;47.456;19.016;2022-09-09T13:03:59;19.42;;;18.73;;
42296;SDS011;28985;47.456;19.016;2022-09-09T13:06:27;19.23;;;18.30;;
42296;SDS011;28985;47.456;19.016;2022-09-09T13:08:56;18.17;;;17.58;;
42296;SDS011;28985;47.456;19.016;2022-09-09T13:13:58;17.42;;;16.88;;
42296;SDS011;28985;47.456;19.016;2022-09-09T13:16:26;19.50;;;18.90;;
42296;SDS011;28985;47.456;19.016;2022-09-09T13:18:59;18.58;;;17.88;;
42296;SDS011;28985;47.456;19.016;2022-09-09T13:21:34;19.10;;;18.45;;
42296;SDS011;28985;47.456;19.016;2022-09-09T13:24:01;19.38;;;18.77;;
42296;SDS011;28985;47.456;19.016;2022-09-09T13:26:29;18.90;;;18.15;;
42296;SDS011;28985;47.456;19.016;2022-09-09T13:29:07;19.30;;;18.67;;
42296;SDS011;28985;47.456;19.016;2022-09-09T13:31:44;21.05;;;20.05;;
42296;SDS011;28985;47.456;19.016;2022-09-09T13:34:12;22.00;;;21.00;;
42296;SDS011;28985;47.456;19.016;2022-09-09T13:37:02;18.95;;;18.35;;
42296;SDS011;28985;47.456;19.016;2022-09-09T13:39:35;19.17;;;18.58;;
42296;SDS011;28985;47.456;19.016;2022-09-09T13:42:03;19.25;;;18.60;;
42296;SDS011;28985;47.456;19.016;2022-09-09T13:44:31;19.38;;;18.73;;
42296;SDS011;28985;47.456;19.016;2022-09-09T13:49:35;19.17;;;18.58;;
42296;SDS011;28985;47.456;19.016;2022-09-09T13:52:09;19.58;;;18.98;;
42296;SDS011;28985;47.456;19.016;2022-09-09T13:54:38;18.95;;;18.33;;
42296;SDS011;28985;47.456;19.016;2022-09-09T13:57:05;20.33;;;19.63;;
42296;SDS011;28985;47.456;19.016;2022-09-09T13:59:41;18.73;;;18.02;;
42296;SDS011;28985;47.456;19.016;2022-09-09T14:02:27;19.23;;;18.55;;
42296;SDS011;28985;47.456;19.016;2022-09-09T14:04:54;20.98;;;20.27;;
42296;SDS011;28985;47.456;19.016;2022-09-09T14:07:21;20.33;;;19.50;;
42296;SDS011;28985;47.456;19.016;2022-09-09T14:09:48;19.05;;;18.45;;
42296;SDS011;28985;47.456;19.016;2022-09-09T14:12:16;19.92;;;19.10;;
42296;SDS011;28985;47.456;19.016;2022-09-09T14:14:42;19.50;;;18.90;;
42296;SDS011;28985;47.456;19.016;2022-09-09T14:17:10;19.25;;;18.55;;
42296;SDS011;28985;47.456;19.016;2022-09-09T14:19:36;19.23;;;18.55;;
42296;SDS011;28985;47.456;19.016;2022-09-09T14:22:03;19.90;;;19.23;;
42296;SDS011;28985;47.456;19.016;2022-09-09T14:24:32;20.27;;;19.48;;
42296;SDS011;28985;47.456;19.016;2022-09-09T14:27:00;20.10;;;19.40;;
42296;SDS011;28985;47.456;19.016;2022-09-09T14:29:26;22.80;;;22.02;;
42296;SDS011;28985;47.456;19.016;2022-09-09T14:31:53;23.23;;;22.40;;
42296;SDS011;28985;47.456;19.016;2022-09-09T14:34:19;20.80;;;20.00;;
42296;SDS011;28985;47.456;19.016;2022-09-09T14:36:46;21.83;;;21.00;;
42296;SDS011;28985;47.456;19.016;2022-09-09T14:39:13;25.83;;;24.95;;
42296;SDS011;28985;47.456;19.016;2022-09-09T14:41:40;23.13;;;22.33;;
42296;SDS011;28985;47.456;19.016;2022-09-09T14:44:06;21.20;;;20.50;;
42296;SDS011;28985;47.456;19.016;2022-09-09T14:46:34;24.95;;;23.75;;
42296;SDS011;28985;47.456;19.016;2022-09-09T14:49:01;26.40;;;25.50;;
42296;SDS011;28985;47.456;19.016;2022-09-09T14:51:27;27.52;;;26.42;;
42296;SDS011;28985;47.456;19.016;2022-09-09T14:53:55;26.05;;;25.15;;
42296;SDS011;28985;47.456;19.016;2022-09-09T14:56:25;28.75;;;27.75;;
42296;SDS011;28985;47.456;19.016;2022-09-09T14:58:54;35.30;;;33.88;;
42296;SDS011;28985;47.456;19.016;2022-09-09T15:01:21;33.83;;;32.70;;
42296;SDS011;28985;47.456;19.016;2022-09-09T15:03:52;28.02;;;27.02;;
42296;SDS011;28985;47.456;19.016;2022-09-09T15:06:24;31.02;;;29.85;;
42296;SDS011;28985;47.456;19.016;2022-09-09T15:08:52;29.85;;;28.58;;
42296;SDS011;28985;47.456;19.016;2022-09-09T15:11:20;34.40;;;33.08;;
42296;SDS011;28985;47.456;19.016;2022-09-09T15:13:48;30.35;;;29.20;;
42296;SDS011;28985;47.456;19.016;2022-09-09T15:16:19;30.15;;;29.15;;
42296;SDS011;28985;47.456;19.016;2022-09-09T15:18:46;29.85;;;28.85;;
42296;SDS011;28985;47.456;19.016;2022-09-09T15:21:17;29.75;;;28.65;;
42296;SDS011;28985;47.456;19.016;2022-09-09T15:23:45;29.38;;;27.98;;
42296;SDS011;28985;47.456;19.016;2022-09-09T15:26:13;27.05;;;26.15;;
42296;SDS011;28985;47.456;19.016;2022-09-09T15:28:40;27.13;;;25.95;;
42296;SDS011;28985;47.456;19.016;2022-09-09T15:31:20;24.73;;;23.83;;
42296;SDS011;28985;47.456;19.016;2022-09-09T15:33:48;23.88;;;23.08;;
42296;SDS011;28985;47.456;19.016;2022-09-09T15:36:18;25.20;;;24.40;;
42296;SDS011;28985;47.456;19.016;2022-09-09T15:38:46;23.05;;;22.25;;
42296;SDS011;28985;47.456;19.016;2022-09-09T15:41:14;26.30;;;25.40;;
42296;SDS011;28985;47.456;19.016;2022-09-09T15:43:44;29.05;;;28.05;;
42296;SDS011;28985;47.456;19.016;2022-09-09T15:49:15;24.77;;;23.98;;
42296;SDS011;28985;47.456;19.016;2022-09-09T15:51:53;26.30;;;25.40;;
42296;SDS011;28985;47.456;19.016;2022-09-09T15:54:46;25.23;;;24.30;;
42296;SDS011;28985;47.456;19.016;2022-09-09T15:57:12;26.20;;;25.20;;
42296;SDS011;28985;47.456;19.016;2022-09-09T15:59:39;21.40;;;20.70;;
42296;SDS011;28985;47.456;19.016;2022-09-09T16:02:06;19.60;;;19.00;;
42296;SDS011;28985;47.456;19.016;2022-09-09T16:04:33;19.55;;;18.85;;
42296;SDS011;28985;47.456;19.016;2022-09-09T16:07:03;19.90;;;18.67;;
42296;SDS011;28985;47.456;19.016;2022-09-09T16:09:31;20.10;;;19.23;;
42296;SDS011;28985;47.456;19.016;2022-09-09T16:11:59;20.83;;;20.13;;
42296;SDS011;28985;47.456;19.016;2022-09-09T16:14:27;21.33;;;20.63;;
42296;SDS011;28985;47.456;19.016;2022-09-09T16:16:55;26.48;;;25.48;;
42296;SDS011;28985;47.456;19.016;2022-09-09T16:19:22;26.15;;;25.02;;
42296;SDS011;28985;47.456;19.016;2022-09-09T16:21:49;28.65;;;27.65;;
42296;SDS011;28985;47.456;19.016;2022-09-09T16:24:17;30.02;;;28.90;;
42296;SDS011;28985;47.456;19.016;2022-09-09T16:26:46;34.55;;;33.25;;
42296;SDS011;28985;47.456;19.016;2022-09-09T16:29:15;36.97;;;35.47;;
42296;SDS011;28985;47.456;19.016;2022-09-09T16:31:44;34.90;;;33.50;;
42296;SDS011;28985;47.456;19.016;2022-09-09T16:34:12;35.63;;;34.22;;
42296;SDS011;28985;47.456;19.016;2022-09-09T16:36:39;33.63;;;32.25;;
42296;SDS011;28985;47.456;19.016;2022-09-09T16:39:14;33.40;;;32.17;;
42296;SDS011;28985;47.456;19.016;2022-09-09T16:41:42;29.52;;;28.33;;
42296;SDS011;28985;47.456;19.016;2022-09-09T16:44:10;23.98;;;23.08;;
42296;SDS011;28985;47.456;19.016;2022-09-09T16:46:39;21.75;;;20.95;;
42296;SDS011;28985;47.456;19.016;2022-09-09T16:49:09;22.63;;;21.67;;
42296;SDS011;28985;47.456;19.016;2022-09-09T16:51:38;21.75;;;20.95;;